Latest Weather Observations for Hobart Airport

IDT60801

Issued at 11:35 pm EST Tuesday 30 September 2014 (issued every 30 minutes, with the page automatically refreshed every 10 minutes)

About weather observations | Map of weather stations | Latest weather observations for TAS | Other Formats
Station Details ID: 094008 Name: HOBART AIRPORT Lat: -42.83 Lon: 147.50 Height: 4.0 m
Data from the previous 72 hours. | See also: Recent months at Hobart Airport
Date/Time
EST
Temp
°C
App
Temp
°C
Dew
Point
Rel
Hum
%
Delta-T
°C
Wind Press
QNH
hPa
Press
MSL
hPa
Rain
since 9 am
mm
Dir
 
Spd
km/h
Gust
km/h
Spd
kts
Gust
kts
30/11:30pm 7.9 1.4 0.4 59 3.0 NW 24 30 13 16 1004.0 1004.0 0.4
30/11:00pm 7.6 3.0 -1.0 54 3.3 NNW 13 17 7 9 1003.3 1003.3 0.4
30/10:30pm 7.9 1.7 -0.2 56 3.2 NW 22 26 12 14 1003.0 1003.0 0.4
30/10:00pm 7.4 3.2 1.5 66 2.4 NNW 13 20 7 11 1002.6 1002.6 0.4
30/09:30pm 7.9 3.5 0.1 58 3.1 NW 13 17 7 9 1001.9 1001.9 0.4
30/09:00pm 8.3 3.6 0.6 58 3.1 NW 15 22 8 12 1001.4 1001.4 0.4
30/08:30pm 8.7 3.5 -0.1 54 3.5 WNW 17 26 9 14 1001.0 1001.0 0.4
30/08:00pm 9.2 3.5 -0.7 50 3.9 WNW 19 30 10 16 1000.0 1000.0 0.4
30/07:30pm 9.6 4.3 -0.7 48 4.1 W 17 24 9 13 999.2 999.2 0.4
30/07:00pm 9.3 1.3 1.9 60 3.1 WSW 33 41 18 22 998.6 998.6 0.4
30/06:49pm 9.6 0.8 1.5 57 3.4 WSW 37 56 20 30 998.3 998.3 0.4
30/06:40pm 9.8 -0.1 1.4 56 3.5 SW 43 56 23 30 998.0 998.0 0.4
30/06:30pm 9.9 4.6 3.0 62 3.0 SW 20 30 11 16 997.5 997.5 0.4
30/06:00pm 11.0 4.1 4.6 64 2.9 W 30 37 16 20 996.6 996.7 0.4
30/05:32pm 12.4 5.7 3.8 55 3.9 WNW 28 48 15 26 995.5 995.6 0.4
30/05:30pm 12.5 6.2 3.6 54 4.0 WNW 26 48 14 26 995.4 995.5 0.4
30/05:00pm 12.7 7.4 5.0 59 3.6 WNW 22 30 12 16 994.5 994.6 0.4
30/04:30pm 12.4 7.6 5.6 63 3.2 NW 20 30 11 16 993.7 993.8 0.4
30/04:00pm 12.0 7.4 6.4 68 2.7 WNW 20 26 11 14 993.3 993.4 0.4
30/03:30pm 12.1 7.2 6.9 70 2.5 NNW 22 35 12 19 993.5 993.6 0.4
30/03:00pm 11.3 7.7 8.3 82 1.5 N 17 22 9 12 994.0 994.1 0.4
30/02:30pm 12.1 10.5 8.9 81 1.6 ESE 7 9 4 5 994.5 994.6 0.0
30/02:18pm 11.9 8.0 9.3 84 1.3 S 20 28 11 15 994.3 994.4 0.0
30/02:07pm 12.1 4.6 9.4 83 1.4 SSW 39 57 21 31 994.1 994.2 0.0
30/02:00pm 12.4 4.4 9.1 80 1.7 SW 41 52 22 28 993.9 994.0 0.0
30/01:55pm 13.8 4.3 6.6 62 3.5 W 46 65 25 35 993.9 994.0 0.0
30/01:45pm 14.4 4.0 6.1 57 4.0 WNW 50 63 27 34 993.1 993.2 0.0
30/01:31pm 17.5 11.1 5.4 45 5.8 NNW 28 48 15 26 992.4 992.5 0.0
30/01:30pm 17.5 11.6 5.7 46 5.7 NNW 26 44 14 24 992.3 992.4 0.0
30/01:00pm 17.6 13.5 7.8 52 5.0 NNW 19 28 10 15 992.7 992.8 0.0
30/12:30pm 17.6 10.9 7.4 51 5.1 NW 32 39 17 21 992.9 993.0 0.0
30/12:00pm 17.9 9.3 6.5 47 5.7 NW 41 54 22 29 993.2 993.3 0.0
30/11:44am 18.3 11.0 7.1 48 5.6 WNW 35 56 19 30 993.6 993.7 0.0
30/11:30am 18.1 8.6 6.8 47 5.6 NW 46 57 25 31 993.9 994.0 0.0
30/11:03am 18.7 11.9 5.2 41 6.6 NNW 30 48 16 26 993.7 993.8 0.0
30/11:00am 18.5 12.2 5.5 42 6.4 NNW 28 41 15 22 993.7 993.8 0.0
30/10:33am 18.7 11.4 4.7 39 6.7 NNW 32 52 17 28 994.1 994.2 0.0
30/10:30am 18.7 11.8 4.4 39 6.8 NNW 30 41 16 22 994.1 994.2 0.0
30/10:21am 18.9 11.0 4.4 38 6.9 NW 35 54 19 29 994.0 994.1 0.0
30/10:00am 19.0 11.5 4.6 38 7.0 NNW 33 48 18 26 994.6 994.7 0.0
30/09:32am 18.5 11.0 3.2 36 7.1 NNW 32 54 17 29 995.3 995.4 0.0
30/09:30am 18.6 10.8 2.7 34 7.3 NNW 33 50 18 27 995.3 995.4 0.0
30/09:00am 17.7 11.0 3.4 38 6.7 NNW 28 46 15 25 995.6 995.7 0.2
30/08:43am 17.4 9.5 2.3 36 6.8 NNW 33 56 18 30 996.0 996.1 0.2
30/08:30am 16.8 10.4 3.2 40 6.2 NNW 26 44 14 24 996.1 996.2 0.2
30/08:00am 16.0 7.9 3.2 42 5.9 NNW 35 54 19 29 997.0 997.1 0.2
30/07:36am 15.4 7.3 3.5 45 5.4 NNW 35 56 19 30 996.8 996.9 0.2
30/07:30am 15.1 7.6 3.6 46 5.3 NNW 32 48 17 26 996.7 996.8 0.2
30/07:00am 14.3 7.6 3.6 48 4.9 NNW 28 46 15 25 996.9 997.0 0.2
30/06:44am 13.4 6.8 4.0 53 4.3 NNW 28 48 15 26 997.4 997.4 0.2
30/06:30am 13.3 7.5 4.2 54 4.1 NNW 24 41 13 22 997.7 997.7 0.2
30/06:00am 12.9 8.3 3.9 54 4.1 NNW 17 30 9 16 998.2 998.2 0.2
30/05:30am 13.2 8.6 3.7 52 4.3 NNW 17 35 9 19 998.7 998.7 0.2
30/05:00am 13.2 8.9 3.2 50 4.5 NNW 15 20 8 11 998.9 998.9 0.2
30/04:30am 14.2 9.0 2.6 45 5.1 NNW 19 35 10 19 999.3 999.3 0.2
30/04:00am 14.0 9.6 2.6 46 5.1 NNW 15 28 8 15 999.6 999.6 0.2
30/03:30am 13.9 10.3 2.7 46 5.0 N 11 20 6 11 999.9 999.9 0.2
30/03:00am 14.2 9.9 3.4 48 4.9 NNW 15 24 8 13 1000.3 1000.3 0.2
30/02:30am 14.6 9.3 3.1 46 5.2 NNW 20 33 11 18 1000.6 1000.6 0.2
30/02:00am 14.6 9.0 3.7 48 5.0 NNW 22 37 12 20 1001.2 1001.2 0.2
30/01:30am 14.5 10.4 4.1 49 4.8 N 15 28 8 15 1001.6 1001.6 0.2
30/01:00am 14.6 9.6 3.7 48 5.0 N 19 30 10 16 1002.1 1002.1 0.2
30/12:30am 13.7 10.3 3.8 51 4.5 N 11 19 6 10 1002.3 1002.3 0.2
30/12:00am 13.2 8.8 4.5 55 4.0 NNW 17 28 9 15 1002.6 1002.6 0.2
 
Date/Time
EST
Temp
°C
App
Temp
°C
Dew
Point
Rel
Hum
%
Delta-T
°C
Wind Press
QNH
hPa
Press
MSL
hPa
Rain
since 9 am
mm
Dir
 
Spd
km/h
Gust
km/h
Spd
kts
Gust
kts
29/11:30pm 14.1 7.3 3.3 48 4.9 NNW 28 39 15 21 1002.7 1002.7 0.2
29/11:00pm 13.9 7.1 3.3 49 4.8 NNW 28 43 15 23 1002.8 1002.8 0.2
29/10:30pm 13.5 7.4 3.0 49 4.7 N 24 33 13 18 1002.9 1002.9 0.2
29/10:00pm 13.5 7.8 2.7 48 4.8 NNW 22 37 12 20 1003.4 1003.4 0.2
29/09:30pm 13.6 6.9 1.6 44 5.2 N 26 41 14 22 1003.4 1003.4 0.2
29/09:00pm 13.6 6.5 1.3 43 5.3 NNW 28 39 15 21 1003.5 1003.5 0.2
29/08:41pm 13.5 6.4 1.2 43 5.3 NNW 28 46 15 25 1003.4 1003.4 0.2
29/08:30pm 13.9 6.7 0.5 40 5.7 NNW 28 39 15 21 1003.4 1003.4 0.2
29/08:00pm 13.8 6.6 0.7 41 5.6 N 28 39 15 21 1003.6 1003.6 0.2
29/07:30pm 14.5 7.4 1.1 40 5.8 NNW 28 48 15 26 1003.4 1003.4 0.2
29/07:00pm 15.1 10.2 1.7 40 5.9 NNW 17 26 9 14 1003.1 1003.1 0.2
29/06:30pm 15.5 9.7 2.4 41 5.9 NNW 22 32 12 17 1003.0 1003.0 0.2
29/06:05pm 16.2 8.7 0.9 35 6.7 NW 30 48 16 26 1002.9 1002.9 0.2
29/06:00pm 16.3 8.2 1.1 35 6.7 NW 33 48 18 26 1002.8 1002.8 0.2
29/05:37pm 16.7 9.1 0.4 33 7.1 NW 30 48 16 26 1002.5 1002.5 0.2
29/05:30pm 16.8 9.4 1.6 36 6.8 NW 30 41 16 22 1002.4 1002.4 0.2
29/05:03pm 17.3 10.3 1.8 35 6.9 NNW 28 48 15 26 1002.0 1002.0 0.2
29/05:00pm 17.4 10.3 1.6 34 7.1 NW 28 39 15 21 1002.0 1002.0 0.2
29/04:30pm 17.6 9.7 1.3 33 7.2 NW 32 44 17 24 1002.0 1002.0 0.2
29/04:00pm 18.0 9.5 0.9 31 7.6 NW 35 50 19 27 1002.2 1002.2 0.2
29/03:30pm 17.7 7.6 0.4 31 7.6 NW 43 56 23 30 1002.3 1002.3 0.2
29/03:00pm 17.9 6.3 -1.1 27 8.1 NW 50 67 27 36 1002.2 1002.2 0.2
29/02:37pm 18.3 9.4 0.8 31 7.7 NW 37 59 20 32 1002.7 1002.7 0.2
29/02:30pm 18.3 9.6 -0.7 27 8.2 NW 35 48 19 26 1002.8 1002.8 0.2
29/02:03pm 17.8 8.2 -1.3 27 8.1 NW 39 59 21 32 1002.8 1002.8 0.2
29/02:00pm 17.9 9.1 -1.5 26 8.2 NW 35 50 19 27 1002.9 1002.9 0.2
29/01:30pm 18.2 9.6 -0.1 29 7.9 NW 35 54 19 29 1003.1 1003.1 0.2
29/01:00pm 17.8 7.8 -1.3 27 8.1 NW 41 59 22 32 1003.3 1003.3 0.2
29/12:59pm 17.5 7.5 -1.5 27 8.0 NW 41 59 22 32 1003.3 1003.3 0.2
29/12:30pm 17.2 7.2 -1.3 28 7.8 NW 41 54 22 29 1003.7 1003.7 0.2
29/12:02pm 17.0 6.7 -1.3 28 7.7 NW 43 61 23 33 1004.1 1004.1 0.0
29/12:00pm 17.0 6.8 -2.9 25 8.1 NW 41 54 22 29 1004.0 1004.0 0.0
29/11:44am 16.2 6.0 -0.1 33 6.9 NW 43 61 23 33 1003.7 1003.7 0.0
29/11:30am 16.3 7.2 1.7 37 6.5 NW 39 52 21 28 1003.7 1003.7 0.0
29/11:02am 16.2 7.4 -0.9 31 7.2 WNW 35 54 19 29 1003.9 1003.9 0.0
29/11:00am 16.3 7.1 -1.4 30 7.4 WNW 37 54 20 29 1003.9 1003.9 0.0
29/10:43am 16.1 8.6 -1.4 30 7.3 NW 28 48 15 26 1004.0 1004.0 0.0
29/10:30am 16.0 8.3 0.2 34 6.8 WNW 30 39 16 21 1004.0 1004.0 0.0
29/10:18am 15.4 6.3 -0.8 33 6.8 WNW 37 56 20 30 1004.3 1004.3 0.0
29/10:00am 15.5 5.5 -1.4 31 7.0 WNW 41 54 22 29 1004.2 1004.2 0.0
29/09:30am 15.1 6.0 -0.3 35 6.5 WNW 37 52 20 28 1003.8 1003.8 0.0
29/09:09am 14.6 6.8 1.6 41 5.7 WNW 32 50 17 27 1003.9 1003.9 0.0
29/09:00am 14.3 7.6 1.4 41 5.6 WNW 26 48 14 26 1003.8 1003.8 0.0
29/08:49am 13.4 5.9 1.0 43 5.3 WNW 30 48 16 26 1003.9 1003.9 0.0
29/08:30am 13.9 8.4 1.8 44 5.3 WNW 20 32 11 17 1003.4 1003.4 0.0
29/08:00am 13.2 7.1 0.4 41 5.4 WNW 22 35 12 19 1003.0 1003.0 0.0
29/07:30am 12.7 7.5 2.5 50 4.5 NW 19 30 10 16 1002.7 1002.7 0.0
29/07:00am 11.5 6.3 3.4 57 3.6 NW 20 30 11 16 1002.2 1002.2 0.0
29/06:30am 11.2 5.7 4.1 61 3.2 NNW 22 30 12 16 1001.7 1001.7 0.0
29/06:00am 10.9 5.6 4.8 66 2.8 NW 22 35 12 19 1001.0 1001.0 0.0
29/05:30am 11.2 4.4 3.0 57 3.6 WNW 28 39 15 21 1000.6 1000.6 0.0
29/05:00am 11.0 5.4 3.3 59 3.4 W 22 33 12 18 1000.0 1000.0 0.0
29/04:40am 11.5 4.8 3.4 57 3.6 WNW 28 48 15 26 999.7 999.7 0.0
29/04:30am 11.4 6.1 4.9 64 3.0 WNW 22 33 12 18 999.6 999.6 0.0
29/04:00am 12.0 5.5 4.8 61 3.3 NW 28 37 15 20 999.0 999.0 0.0
29/03:30am 13.3 6.0 2.5 48 4.7 NW 30 63 16 34 997.5 997.5 0.0
29/03:00am 13.1 6.5 2.2 47 4.8 N 26 43 14 23 995.6 995.7 0.0
29/02:30am 13.2 6.2 1.7 45 5.0 N 28 41 15 22 996.0 996.1 0.0
29/02:00am 13.5 6.5 1.9 45 5.1 N 28 46 15 25 996.4 996.5 0.0
29/01:30am 13.8 7.1 1.4 43 5.3 N 26 35 14 19 997.3 997.3 0.0
29/01:00am 14.9 6.7 0.2 36 6.3 NNW 33 48 18 26 997.1 997.2 0.0
29/12:42am 15.5 7.3 -1.3 31 6.9 NNW 32 50 17 27 997.0 997.1 0.0
29/12:30am 15.9 6.9 -2.9 27 7.5 NW 35 50 19 27 997.0 997.1 0.0
29/12:07am 16.3 7.8 -3.4 25 7.8 NW 32 52 17 28 996.8 996.9 0.0
29/12:00am 16.5 7.8 -3.0 26 7.9 NW 33 48 18 26 996.8 996.9 0.0
 
Date/Time
EST
Temp
°C
App
Temp
°C
Dew
Point
Rel
Hum
%
Delta-T
°C
Wind Press
QNH
hPa
Press
MSL
hPa
Rain
since 9 am
mm
Dir
 
Spd
km/h
Gust
km/h
Spd
kts
Gust
kts
28/11:42pm 17.1 9.5 -2.2 26 7.9 NW 28 48 15 26 996.7 996.8 0.0
28/11:30pm 16.7 11.6 3.9 42 6.0 NW 20 30 11 16 996.6 996.7 0.0
28/11:00pm 16.2 12.8 9.1 63 3.7 N 17 26 9 14 996.6 996.7 0.0
28/10:30pm 16.5 12.7 9.0 61 3.9 N 19 28 10 15 996.9 997.0 0.0
28/10:00pm 17.0 14.3 8.9 59 4.2 NNW 13 19 7 10 997.4 997.4 0.0
28/09:30pm 17.1 13.5 8.4 56 4.5 N 17 22 9 12 997.1 997.2 0.0
28/09:00pm 17.6 13.6 8.1 53 4.9 N 19 28 10 15 997.4 997.4 0.0
28/08:30pm 17.9 13.3 8.2 53 5.0 N 22 37 12 20 997.5 997.5 0.0
28/08:00pm 17.7 12.5 8.9 56 4.6 N 26 39 14 21 997.6 997.6 0.0
28/07:30pm 18.1 12.4 8.5 53 5.0 NNW 28 46 15 25 997.4 997.4 0.0
28/07:00pm 18.7 12.6 8.1 50 5.5 N 30 43 16 23 996.8 996.9 0.0
28/06:30pm 18.6 12.0 8.4 51 5.3 N 33 48 18 26 996.8 996.9 0.0
28/06:01pm 18.8 11.8 8.5 51 5.3 N 35 54 19 29 996.5 996.6 0.0
28/06:00pm 18.8 11.8 8.5 51 5.4 N 35 48 19 26 996.5 996.6 0.0
28/05:30pm 19.8 11.5 7.6 45 6.3 N 41 67 22 36 996.4 996.5 0.0
28/05:07pm 20.2 12.5 6.9 42 6.7 N 37 56 20 30 996.2 996.3 0.0
28/05:00pm 20.4 12.2 6.7 41 7.0 N 39 54 21 29 995.9 996.0 0.0
28/04:30pm 22.5 13.1 4.6 31 8.8 N 43 59 23 32 996.1 996.2 0.0
28/04:00pm 22.8 13.2 4.2 29 9.2 NNW 44 72 24 39 996.5 996.6 0.0
28/03:30pm 22.6 14.7 4.1 30 9.0 NNW 35 57 19 31 997.1 997.2 0.0
28/03:00pm 23.3 13.7 3.4 27 9.7 NNW 43 69 23 37 997.8 997.8 0.0
28/02:30pm 23.3 15.7 3.8 28 9.5 NNW 33 54 18 29 997.8 997.8 0.0
28/02:00pm 24.2 12.4 2.8 24 10.4 NW 54 78 29 42 998.0 998.0 0.0
28/01:57pm 24.7 11.8 1.6 22 10.9 NW 59 78 32 42 997.6 997.6 0.0
28/01:50pm 24.8 14.9 1.5 21 11.0 NNW 43 63 23 34 997.9 997.9 0.0
28/01:30pm 25.6 12.2 0.9 20 11.6 NW 61 78 33 42 997.9 997.9 0.0
28/01:00pm 26.8 17.2 -1.3 16 12.9 NNW 39 87 21 47 997.3 997.3 0.0
28/12:33pm 26.1 17.0 4.0 24 11.0 N 41 59 22 32 998.5 998.5 0.0
28/12:30pm 26.3 16.6 4.1 24 11.1 N 44 59 24 32 998.5 998.5 0.0
28/12:13pm 26.0 17.6 3.8 24 11.0 NNW 37 56 20 30 998.9 998.9 0.0
28/12:00pm 26.4 13.9 0.7 18 12.2 NNW 56 80 30 43 998.7 998.7 0.0
28/11:56am 26.3 15.7 0.9 19 12.0 NNW 46 57 25 31 998.7 998.7 0.0
28/11:47am 26.3 17.6 2.0 20 11.7 NNW 37 78 20 42 998.8 998.8 0.0
28/11:30am 23.2 15.6 8.9 40 7.7 N 39 59 21 32 999.7 999.7 0.0
28/11:00am 21.8 13.8 8.9 43 6.9 N 41 63 22 34 999.9 999.9 0.0
28/10:30am 21.4 12.8 8.1 42 7.0 N 43 65 23 35 1000.3 1000.3 0.0
28/10:00am 21.1 13.7 8.4 44 6.7 N 37 56 20 30 1000.8 1000.8 0.0
28/09:30am 19.8 12.9 8.8 49 5.8 N 35 56 19 30 1001.5 1001.5 0.0
28/09:14am 19.5 13.9 8.9 50 5.6 N 28 46 15 25 1002.0 1002.0 0.0
28/09:00am 18.9 14.1 9.0 52 5.2 N 24 37 13 20 1002.3 1002.3 0.4
28/08:30am 17.9 12.4 9.1 56 4.6 N 28 41 15 22 1003.3 1003.3 0.4
28/08:00am 16.3 10.5 9.4 63 3.6 NNW 30 44 16 24 1003.7 1003.7 0.4
28/07:30am 15.5 9.3 9.3 66 3.2 NNW 32 50 17 27 1003.9 1003.9 0.4
28/07:14am 15.2 8.7 9.0 66 3.2 NNW 33 52 18 28 1004.2 1004.2 0.4
28/07:00am 14.8 8.6 9.2 69 2.9 NNW 32 46 17 25 1004.3 1004.3 0.4
28/06:37am 14.4 8.5 9.1 70 2.7 NNW 30 50 16 27 1004.8 1004.8 0.4
28/06:30am 14.5 8.6 9.0 69 2.8 NNW 30 44 16 24 1004.7 1004.7 0.4
28/06:00am 14.3 8.0 9.0 70 2.7 NNW 32 43 17 23 1005.0 1005.0 0.4
28/05:38am 14.1 7.6 9.0 71 2.6 NNW 33 52 18 28 1005.1 1005.1 0.4
28/05:30am 14.3 7.1 9.0 70 2.7 NNW 37 52 20 28 1005.1 1005.1 0.4
28/05:00am 14.2 7.7 8.9 70 2.7 NNW 33 52 18 28 1005.4 1005.4 0.4
28/04:30am 14.4 8.1 8.9 69 2.8 NNW 32 50 17 27 1005.4 1005.4 0.4
28/04:04am 14.3 7.8 8.8 69 2.8 N 33 52 18 28 1005.9 1005.9 0.4
28/04:00am 14.4 7.8 8.7 68 2.9 N 33 48 18 26 1005.9 1005.9 0.4
28/03:36am 13.9 8.2 8.5 70 2.7 N 28 46 15 25 1006.4 1006.4 0.4
28/03:30am 14.1 8.8 8.3 68 2.9 N 26 37 14 20 1006.4 1006.4 0.4
28/03:00am 13.8 8.8 8.2 69 2.8 N 24 35 13 19 1007.0 1007.0 0.4
28/02:30am 13.6 8.7 8.4 71 2.6 N 24 35 13 19 1007.5 1007.5 0.4
28/02:00am 13.5 10.0 8.7 73 2.4 N 17 30 9 16 1008.0 1008.0 0.4
28/01:30am 13.3 9.4 8.5 72 2.4 N 19 30 10 16 1008.7 1008.7 0.4
28/01:00am 13.1 9.1 8.3 72 2.4 N 19 28 10 15 1009.4 1009.4 0.4
28/12:30am 13.5 8.4 7.8 68 2.8 N 24 33 13 18 1009.8 1009.8 0.4
28/12:00am 13.3 8.3 8.1 71 2.6 N 24 37 13 20 1010.2 1010.2 0.4

Other Formats:

Comma delimited format used in spreadsheet applications
http://www.bom.gov.au/fwo/IDT60801/IDT60801.94975.axf

JavaScript Object Notation format (JSON) in row-major order
http://www.bom.gov.au/fwo/IDT60801/IDT60801.94975.json